DATE METEO

IERI
Time Temp. Dewp. Hum. Wind dir Wind speed Wind gust Bar. 1h Prec. 24h Prec.
00:01 18.8 11.4 62 240 2.5 5.3 1001.2 0.0000 0.0000
00:10 18.7 11.3 62 250 2.8 6.7 1001 0.0000 0.0000
00:21 18.6 11.4 63 260 3.3 7.8 1001.3 0.0000 0.0000
00:31 18.6 11.4 63 244 3.1 6.9 1001.4 0.0000 0.0000
00:41 18.5 11.3 63 253 3.1 6.1 1000.8 0.0000 0.0000
00:51 18.4 11.5 64 248 3.1 7.8 1001 0.0000 0.0000
01:01 18.3 11.6 65 241 2.8 5 1001 0.0000 0.0000
01:11 18.2 11.8 66 252 3.1 7.8 1001 0.0000 0.0000
01:21 18.1 11.9 67 270 3.6 8.1 1001.3 0.0000 0.0000
01:31 17.7 12.4 71 289 4.4 9.2 1002.1 0.1760 0.2000
01:42 16.4 12.6 78 306 5.3 10.3 1002.2 0.3520 0.4000
01:51 15.5 11.7 78 295 5.6 10.3 1002.4 0.3520 0.4000
02:01 15.1 11.5 79 299 5 10.3 1002.3 0.3520 0.4000
02:19 14.7 11.5 81 290 4.7 7.5 1002.5 0.5280 0.5000
02:30 14.6 11.4 81 287 4.7 9.2 1002.3 0.3520 0.5000
02:39 14.6 11.4 81 287 3.9 6.7 1002.4 0.1760 0.5000
02:49 14.5 11.5 82 286 4.4 8.3 1002.4 0.1760 0.5000
02:59 14.4 11.2 81 286 4.2 6.7 1002.4 0.1760 0.5000
03:10 14.3 11.1 81 287 4.4 7.8 1002.5 0.1760 0.5000
03:20 14.3 10.9 80 289 4.7 10.8 1002.5 0.0000 0.5000
03:29 14.2 10.6 79 287 4.2 9.4 1002.6 0.0000 0.5000
03:40 14.1 10.5 79 290 4.4 10.3 1002.7 0.0000 0.5000
03:50 14.1 10.3 78 283 4.7 7.8 1002.8 0.0000 0.5000
04:00 14.2 10.4 78 279 4.2 6.7 1002.8 0.0000 0.5000
04:10 14.1 10.5 79 261 3.9 7.5 1002.8 0.0000 0.5000
04:21 14 10.6 80 268 4.2 8.3 1002.9 0.0000 0.5000
04:30 14 10.8 81 268 4.2 7.8 1003 0.0000 0.5000
04:40 13.9 10.5 80 268 4.2 8.1 1003.3 0.0000 0.5000
04:51 13.9 9.9 77 283 5.8 9.4 1003.4 0.0000 0.5000
05:01 13.9 9.5 75 278 5 8.1 1003.6 0.0000 0.5000
05:11 13.7 9 73 280 5.8 10.3 1003.7 0.0000 0.5000
05:20 13.5 8.8 73 275 4.4 7.8 1003.8 0.0000 0.5000
05:31 13.3 8.6 73 268 4.7 7.2 1004 0.0000 0.5000
05:41 13.2 8.5 73 276 4.4 7.5 1004.2 0.0000 0.5000
05:44 13.1 8.6 74 277 4.7 11.1 1004.3 0.0000 0.5000
05:55 13.1 8.8 75 278 4.4 8.6 1004.3 0.0000 0.5000
06:05 13.1 8.6 74 272 5 8.1 1004.4 0.0000 0.5000
06:15 13.2 8.5 73 276 5 8.6 1004.5 0.0000 0.5000
06:25 13.2 8.5 73 268 4.4 6.4 1004.7 0.0000 0.5000
06:35 13.2 8.5 73 270 5 8.6 1004.7 0.0000 0.5000
06:45 13.2 8.3 72 272 5 8.9 1004.8 0.0000 0.5000
06:55 13.1 8 71 270 5 8.9 1005 0.0000 0.5000
07:06 13.1 8 71 270 5.3 8.6 1005.3 0.0000 0.5000
07:14 13 7.9 71 263 4.7 10 1005.2 0.0000 0.5000
07:24 13 8.1 72 265 5 8.3 1005.4 0.0000 0.5000
07:35 13 8.1 72 256 4.7 8.9 1005.6 0.0000 0.5000
07:44 13 8.1 72 265 5.3 9.4 1005.7 0.0000 0.5000
07:54 13 8.1 72 258 5 8.3 1005.7 0.0000 0.5000
08:04 13 8.3 73 256 5 9.2 1005.6 0.0000 0.5000
08:15 13.1 8.6 74 252 4.7 9.4 1006.1 0.0000 0.5000
08:25 13 8.7 75 263 5.3 9.2 1006 0.0000 0.5000
08:34 13.1 8.8 75 265 5.3 8.9 1006.1 0.0000 0.5000
08:45 13.1 8.6 74 261 5.3 10 1006.1 0.0000 0.5000
08:55 13.1 8.6 74 263 5.6 8.9 1006.2 0.0000 0.5000
09:05 13.3 8.8 74 260 5 9.2 1006.2 0.0000 0.5000
09:15 13.4 8.7 73 267 5 8.1 1006.2 0.0000 0.5000
09:25 13.6 8.9 73 264 5 9.4 1006.5 0.0000 0.5000
09:35 13.8 9.1 73 273 5.6 8.6 1006.5 0.0000 0.5000
09:45 13.8 9.1 73 263 5 8.3 1006.5 0.0000 0.5000
09:56 13.9 9.1 73 275 6.1 10.8 1006.6 0.0000 0.5000
10:06 14 9.2 73 261 4.4 11.7 1006.7 0.0000 0.5000
10:16 14 9.2 73 276 5.8 9.2 1006.9 0.0000 0.5000
10:25 14.1 9.3 73 266 4.7 9.2 1006.8 0.0000 0.5000
10:36 14.3 9.5 73 270 5.3 9.7 1006.8 0.0000 0.5000
10:46 14.4 9.6 73 256 4.4 9.2 1006.9 0.0000 0.5000
10:54 14.5 9.5 72 276 5 11.1 1006.8 0.0000 0.5000
11:04 14.5 9.5 72 289 4.4 9.4 1007.1 0.0000 0.5000
11:14 14.6 9.6 72 282 3.9 6.4 1007.2 0.0000 0.5000
11:24 14.6 9.6 72 282 4.7 7.2 1007.3 0.0000 0.5000
11:34 14.7 9.7 72 286 3.6 8.3 1007.4 0.0000 0.5000
11:44 15 9.8 71 282 3.1 6.4 1007.4 0.0000 0.5000
11:54 15.3 10.1 71 283 1.9 3.9 1007.4 0.0000 0.5000
12:05 15.3 9.7 69 291 3.1 6.1 1007.4 0.0000 0.5000
12:15 15.6 9.9 69 285 2.8 6.4 1007.6 0.0000 0.5000
12:24 15.9 10 68 270 3.6 10.6 1007.4 0.0000 0.5000
12:32 16.3 9.9 66 270 3.3 12.2 1007.6 0.0000 0.5000
12:42 16.4 9.6 64 262 3.3 6.4 1007.6 0.0000 0.5000
12:52 16.4 9.6 64 270 3.6 10 1007.3 0.0000 0.5000
13:03 16.3 9.5 64 286 4.2 7.8 1007.4 0.0000 0.5000
13:13 16.1 9.5 65 287 3.1 5.6 1007.4 0.0000 0.5000
13:22 16.4 9.6 64 276 3.9 10.3 1007.4 0.0000 0.5000
13:33 16.9 9.6 62 270 3.3 6.7 1007.4 0.0000 0.5000
13:43 17.2 9.6 61 265 3.1 8.3 1007.5 0.0000 0.5000
13:53 17.5 9.2 58 253 2.8 10.8 1007.4 0.0000 0.5000
14:03 17.7 9.8 60 287 3.9 9.7 1007.2 0.0000 0.5000
14:13 17.7 9.3 58 287 4.4 11.7 1007.3 0.0000 0.5000
14:23 17.6 9.5 59 270 3.1 9.4 1007.4 0.0000 0.5000
14:33 17.7 9.6 59 270 3.9 10 1007.3 0.0000 0.5000
14:43 17.6 9 57 267 2.8 7.2 1007.3 0.0000 0.5000
14:54 17.6 9 57 289 3.3 6.9 1007.4 0.0000 0.5000
15:03 17.8 8.9 56 259 3.1 8.1 1007.5 0.0000 0.5000
15:21 17.9 9 56 265 3.1 7.5 1007.5 0.0000 0.5000
15:30 17.7 8.6 55 265 3.9 7.8 1007.5 0.0000 0.5000
15:41 17.8 8.6 55 249 3.3 5.6 1007.3 0.0000 0.5000
15:51 17.7 8.8 56 260 3.1 5.8 1007.3 0.0000 0.5000
16:01 17.7 8.8 56 275 3.1 6.7 1007.4 0.0000 0.5000
16:11 17.5 8.6 56 281 2.5 5.8 1007.6 0.0000 0.5000
16:21 17.4 8.8 57 282 2.2 5 1007.5 0.0000 0.5000
16:31 17.3 9 58 286 2.8 5.6 1007.6 0.0000 0.5000
16:41 17.3 9 58 277 1.9 3.9 1007.7 0.0000 0.5000
16:52 17.3 9.2 59 277 1.9 3.3 1007.6 0.0000 0.5000
17:02 17.1 9.5 61 288 1.9 4.2 1007.7 0.0000 0.5000
17:11 17 10.1 64 294 2.2 5.6 1007.7 0.0000 0.5000
17:22 16.9 10.3 65 298 2.2 5.3 1007.7 0.0000 0.5000
17:32 16.8 10.4 66 294 2.2 4.4 1007.8 0.0000 0.5000
17:42 16.7 10.3 66 286 2.2 4.7 1007.9 0.0000 0.5000
17:52 16.5 10.4 67 288 3.1 6.9 1008 0.0000 0.5000
18:02 16.4 10.5 68 291 3.1 5.3 1007.9 0.0000 0.5000
18:12 16.3 10.6 69 292 3.6 5.8 1008.1 0.0000 0.5000
18:22 16.2 10.7 70 292 3.3 6.1 1008 0.0000 0.5000
18:32 16.2 10.7 70 288 3.3 5.3 1008.1 0.0000 0.5000
18:43 16.1 10.8 71 288 2.8 5.3 1008.3 0.0000 0.5000
18:52 16.1 10.8 71 279 2.2 4.4 1008.4 0.0000 0.5000
19:02 16 10.8 71 270 1.7 3.9 1008.4 0.0000 0.5000
19:13 16 11 72 270 1.7 3.6 1008.6 0.0000 0.5000
19:33 15.9 10.9 72 258 1.9 3.3 1008.6 0.0000 0.5000
19:43 15.8 11 73 254 2.5 5 1008.8 0.0000 0.5000
19:53 15.8 11 73 257 2.2 3.6 1009 0.0000 0.5000
20:03 15.7 11.1 74 260 2.5 4.4 1009.1 0.0000 0.5000
20:13 15.7 11.1 74 257 2.2 4.2 1009.1 0.0000 0.5000
20:24 15.6 11 74 255 2.2 3.6 1009.2 0.0000 0.5000
20:33 15.6 11 74 253 2.2 3.9 1009.2 0.0000 0.5000
20:43 15.6 11 74 249 2.2 3.6 1009.2 0.0000 0.5000
20:53 15.5 11.1 75 246 1.9 3.3 1009.3 0.0000 0.5000
21:04 15.5 11.1 75 250 1.9 2.8 1009.5 0.0000 0.5000
21:14 15.5 11.1 75 243 1.9 3.6 1009.6 0.0000 0.5000
21:23 15.4 11 75 245 2.2 4.2 1009.5 0.0000 0.5000
21:34 15.4 11.2 76 239 2.2 3.6 1009.4 0.0000 0.5000
21:44 15.3 11.1 76 250 2.2 4.4 1009.4 0.0000 0.5000
21:54 15.3 11.1 76 247 2.5 4.2 1009.6 0.0000 0.5000
22:04 15.3 11.1 76 242 2.8 4.2 1009.5 0.0000 0.5000
22:14 15.4 11.2 76 242 2.2 3.9 1009.5 0.0000 0.5000
22:32 15.4 11.2 76 242 2.5 4.4 1009.5 0.0000 0.5000
22:41 15.5 11.3 76 252 2.5 4.7 1009.5 0.0000 0.5000
22:51 15.5 11.3 76 248 2.8 5 1009.5 0.0000 0.5000
23:02 15.5 11.3 76 248 2.5 4.4 1009.5 0.0000 0.5000
23:12 15.5 11.3 76 239 1.9 3.3 1009.6 0.0000 0.5000
23:22 15.5 11.5 77 241 2.2 3.9 1009.5 0.0000 0.5000
23:31 15.5 11.5 77 254 2.2 3.9 1009.4 0.0000 0.5000
23:42 15.5 11.5 77 252 2.2 3.9 1009.4 0.0000 0.5000
23:52 15.5 11.5 77 243 2.5 5.3 1009.5 0.0000

STATISTICILE ZILEI

2021-09-24
TEMPERATURA
MEDIA
15.4
MAXIM
18.8
00:01
MINIM
13.0
07:14
PRESIUNEA
MEDIA
1006.3
MAXIM
1009.6
21:14
MINIM
1000.8
00:41
PUNCTUL DE ROUĂ
MEDIA
10.0
MAXIM
12.6
01:42
MINIM
7.9
07:14
UMIDITATEA
MEDIA
71
MAXIM
82
02:49
MINIM
55
15:30
WIND SPEED
MEDIA
3.6
MAXIM
6.1
09:56
WIND GUST
MEDIA
7.1
MAXIM
12.2
12:32
WIND DIRECTION
PREVAILING
W
85.8%
N
0.0
NE
0.0
E
0.0
SE
0.0
S
0.0
SW
9.9
W
85.8
NW
4.3
PRECIPITATION
RAIN HOUR
0.5
RAIN DAY
0.5
TEMPERATURA (°C)
MINIM
13.0
MAXIM
18.8
MEDIA
15.4
PRESIUNEA (hpa)
MINIM
1000.8
MAXIM
1009.6
MEDIA
1006.3
STATIA METEO